sensor_id;sensor_type;location;lat;lon;timestamp;pressure;altitude;pressure_sealevel;temperature;humidity
11542;BME280;5827;49.482;7.716;2022-11-21T00:00:08;97879.31;;;7.51;100.00
11542;BME280;5827;49.482;7.716;2022-11-21T00:02:10;97874.06;;;7.56;100.00
11542;BME280;5827;49.482;7.716;2022-11-21T00:04:12;97885.53;;;7.57;100.00
11542;BME280;5827;49.482;7.716;2022-11-21T00:06:16;97878.09;;;7.59;100.00
11542;BME280;5827;49.482;7.716;2022-11-21T00:08:19;97874.19;;;7.67;100.00
11542;BME280;5827;49.482;7.716;2022-11-21T00:10:21;97877.84;;;7.60;100.00
11542;BME280;5827;49.482;7.716;2022-11-21T00:12:23;97879.22;;;7.63;100.00
11542;BME280;5827;49.482;7.716;2022-11-21T00:14:25;97871.03;;;7.70;100.00
11542;BME280;5827;49.482;7.716;2022-11-21T00:16:27;97875.81;;;7.68;100.00
11542;BME280;5827;49.482;7.716;2022-11-21T00:18:28;97873.59;;;7.81;100.00
11542;BME280;5827;49.482;7.716;2022-11-21T00:20:30;97870.28;;;7.74;100.00
11542;BME280;5827;49.482;7.716;2022-11-21T00:22:33;97860.44;;;7.75;100.00
11542;BME280;5827;49.482;7.716;2022-11-21T00:24:35;97865.69;;;7.70;100.00
11542;BME280;5827;49.482;7.716;2022-11-21T00:26:37;97866.66;;;7.80;100.00
11542;BME280;5827;49.482;7.716;2022-11-21T00:28:39;97866.72;;;7.85;100.00
11542;BME280;5827;49.482;7.716;2022-11-21T00:30:40;97866.28;;;7.94;100.00
11542;BME280;5827;49.482;7.716;2022-11-21T00:32:42;97860.94;;;7.94;100.00
11542;BME280;5827;49.482;7.716;2022-11-21T00:34:43;97862.25;;;7.91;100.00
11542;BME280;5827;49.482;7.716;2022-11-21T00:36:45;97858.81;;;7.96;100.00
11542;BME280;5827;49.482;7.716;2022-11-21T00:38:48;97862.63;;;8.00;100.00
11542;BME280;5827;49.482;7.716;2022-11-21T00:40:49;97855.97;;;8.02;100.00
11542;BME280;5827;49.482;7.716;2022-11-21T00:42:51;97857.34;;;8.05;100.00
11542;BME280;5827;49.482;7.716;2022-11-21T00:44:53;97850.66;;;8.02;100.00
11542;BME280;5827;49.482;7.716;2022-11-21T00:46:54;97847.66;;;7.99;100.00
11542;BME280;5827;49.482;7.716;2022-11-21T00:48:56;97852.94;;;7.94;100.00
11542;BME280;5827;49.482;7.716;2022-11-21T00:50:58;97847.63;;;7.94;100.00
11542;BME280;5827;49.482;7.716;2022-11-21T00:53:00;97849.66;;;7.86;100.00
11542;BME280;5827;49.482;7.716;2022-11-21T00:55:04;97839.28;;;7.68;100.00
11542;BME280;5827;49.482;7.716;2022-11-21T00:57:05;97837.38;;;7.85;100.00
11542;BME280;5827;49.482;7.716;2022-11-21T00:59:07;97834.66;;;7.80;100.00
11542;BME280;5827;49.482;7.716;2022-11-21T01:01:10;97834.28;;;7.72;100.00
11542;BME280;5827;49.482;7.716;2022-11-21T01:03:12;97835.75;;;7.62;100.00
11542;BME280;5827;49.482;7.716;2022-11-21T01:05:14;97835.38;;;7.54;100.00
11542;BME280;5827;49.482;7.716;2022-11-21T01:07:15;97837.84;;;7.60;100.00
11542;BME280;5827;49.482;7.716;2022-11-21T01:09:17;97838.00;;;7.71;100.00
11542;BME280;5827;49.482;7.716;2022-11-21T01:11:20;97817.84;;;7.58;100.00
11542;BME280;5827;49.482;7.716;2022-11-21T01:13:22;97823.50;;;7.61;100.00
11542;BME280;5827;49.482;7.716;2022-11-21T01:15:23;97826.31;;;7.55;100.00
11542;BME280;5827;49.482;7.716;2022-11-21T01:17:25;97826.84;;;7.52;100.00
11542;BME280;5827;49.482;7.716;2022-11-21T01:19:26;97823.28;;;7.46;100.00
11542;BME280;5827;49.482;7.716;2022-11-21T01:21:29;97818.94;;;7.40;100.00
11542;BME280;5827;49.482;7.716;2022-11-21T01:23:31;97829.34;;;7.42;100.00
11542;BME280;5827;49.482;7.716;2022-11-21T01:25:33;97829.19;;;7.31;100.00
11542;BME280;5827;49.482;7.716;2022-11-21T01:27:36;97837.59;;;7.40;100.00
11542;BME280;5827;49.482;7.716;2022-11-21T01:29:38;97829.09;;;7.43;100.00
11542;BME280;5827;49.482;7.716;2022-11-21T01:31:40;97829.84;;;7.38;100.00
11542;BME280;5827;49.482;7.716;2022-11-21T01:33:41;97832.06;;;7.47;100.00
11542;BME280;5827;49.482;7.716;2022-11-21T01:35:43;97823.66;;;7.55;100.00
11542;BME280;5827;49.482;7.716;2022-11-21T01:37:45;97816.34;;;7.45;100.00
11542;BME280;5827;49.482;7.716;2022-11-21T01:39:47;97817.56;;;7.59;100.00
11542;BME280;5827;49.482;7.716;2022-11-21T01:41:48;97814.38;;;7.57;100.00
11542;BME280;5827;49.482;7.716;2022-11-21T01:43:51;97816.91;;;7.47;100.00
11542;BME280;5827;49.482;7.716;2022-11-21T01:45:55;97821.97;;;7.49;100.00
11542;BME280;5827;49.482;7.716;2022-11-21T01:47:58;97825.78;;;7.53;100.00
11542;BME280;5827;49.482;7.716;2022-11-21T01:49:59;97823.53;;;7.45;100.00
11542;BME280;5827;49.482;7.716;2022-11-21T01:52:03;97821.84;;;7.60;100.00
11542;BME280;5827;49.482;7.716;2022-11-21T01:54:11;97816.53;;;7.60;100.00
11542;BME280;5827;49.482;7.716;2022-11-21T01:56:14;97819.75;;;7.62;100.00
11542;BME280;5827;49.482;7.716;2022-11-21T01:58:16;97822.44;;;7.62;100.00
11542;BME280;5827;49.482;7.716;2022-11-21T02:00:23;97819.81;;;7.68;100.00
11542;BME280;5827;49.482;7.716;2022-11-21T02:02:27;97825.63;;;7.64;100.00
11542;BME280;5827;49.482;7.716;2022-11-21T02:04:31;97834.34;;;7.77;100.00
11542;BME280;5827;49.482;7.716;2022-11-21T02:06:34;97829.81;;;7.77;100.00
11542;BME280;5827;49.482;7.716;2022-11-21T02:08:37;97836.31;;;7.86;100.00
11542;BME280;5827;49.482;7.716;2022-11-21T02:10:45;97826.44;;;7.87;100.00
11542;BME280;5827;49.482;7.716;2022-11-21T02:12:49;97833.91;;;7.85;100.00
11542;BME280;5827;49.482;7.716;2022-11-21T02:14:52;97831.84;;;7.92;100.00
11542;BME280;5827;49.482;7.716;2022-11-21T02:16:57;97828.63;;;7.90;100.00
11542;BME280;5827;49.482;7.716;2022-11-21T02:19:00;97833.97;;;7.90;100.00
11542;BME280;5827;49.482;7.716;2022-11-21T02:21:09;97828.75;;;7.78;100.00
11542;BME280;5827;49.482;7.716;2022-11-21T02:23:18;97822.59;;;7.78;100.00
11542;BME280;5827;49.482;7.716;2022-11-21T02:25:25;97818.00;;;7.73;100.00
11542;BME280;5827;49.482;7.716;2022-11-21T02:27:28;97826.00;;;7.95;100.00
11542;BME280;5827;49.482;7.716;2022-11-21T02:29:29;97829.75;;;7.94;100.00
11542;BME280;5827;49.482;7.716;2022-11-21T02:31:33;97822.97;;;7.86;100.00
11542;BME280;5827;49.482;7.716;2022-11-21T02:33:35;97827.78;;;7.84;100.00
11542;BME280;5827;49.482;7.716;2022-11-21T02:35:36;97827.44;;;7.81;100.00
11542;BME280;5827;49.482;7.716;2022-11-21T02:37:38;97820.69;;;7.73;100.00
11542;BME280;5827;49.482;7.716;2022-11-21T02:39:40;97826.06;;;7.78;100.00
11542;BME280;5827;49.482;7.716;2022-11-21T02:41:49;97825.28;;;7.78;100.00
11542;BME280;5827;49.482;7.716;2022-11-21T02:43:57;97820.38;;;7.70;100.00
11542;BME280;5827;49.482;7.716;2022-11-21T02:46:00;97823.94;;;7.75;100.00
11542;BME280;5827;49.482;7.716;2022-11-21T02:48:02;97819.72;;;7.79;100.00
11542;BME280;5827;49.482;7.716;2022-11-21T02:50:09;97823.94;;;7.75;100.00
11542;BME280;5827;49.482;7.716;2022-11-21T02:52:12;97818.28;;;7.72;100.00
11542;BME280;5827;49.482;7.716;2022-11-21T02:54:14;97818.28;;;7.72;100.00
11542;BME280;5827;49.482;7.716;2022-11-21T02:56:15;97830.97;;;7.64;100.00
11542;BME280;5827;49.482;7.716;2022-11-21T02:58:18;97831.34;;;7.73;100.00
11542;BME280;5827;49.482;7.716;2022-11-21T03:00:20;97830.88;;;7.76;100.00
11542;BME280;5827;49.482;7.716;2022-11-21T03:02:23;97836.44;;;7.75;100.00
11542;BME280;5827;49.482;7.716;2022-11-21T03:04:24;97833.88;;;7.63;100.00
11542;BME280;5827;49.482;7.716;2022-11-21T03:06:26;97836.06;;;7.66;100.00
11542;BME280;5827;49.482;7.716;2022-11-21T03:08:28;97840.78;;;7.59;100.00
11542;BME280;5827;49.482;7.716;2022-11-21T03:10:29;97834.63;;;7.58;100.00
11542;BME280;5827;49.482;7.716;2022-11-21T03:12:31;97840.50;;;7.60;100.00
11542;BME280;5827;49.482;7.716;2022-11-21T03:14:34;97838.91;;;7.59;100.00
11542;BME280;5827;49.482;7.716;2022-11-21T03:16:36;97840.44;;;7.55;100.00
11542;BME280;5827;49.482;7.716;2022-11-21T03:18:37;97843.44;;;7.59;100.00
11542;BME280;5827;49.482;7.716;2022-11-21T03:20:39;97836.56;;;7.63;100.00
11542;BME280;5827;49.482;7.716;2022-11-21T03:22:40;97833.63;;;7.64;100.00
11542;BME280;5827;49.482;7.716;2022-11-21T03:24:42;97840.50;;;7.60;100.00
11542;BME280;5827;49.482;7.716;2022-11-21T03:26:44;97833.56;;;7.59;100.00
11542;BME280;5827;49.482;7.716;2022-11-21T03:28:45;97839.78;;;7.65;100.00
11542;BME280;5827;49.482;7.716;2022-11-21T03:30:48;97839.03;;;7.70;100.00
11542;BME280;5827;49.482;7.716;2022-11-21T03:32:50;97837.41;;;7.69;100.00
11542;BME280;5827;49.482;7.716;2022-11-21T03:34:51;97845.94;;;7.66;100.00
11542;BME280;5827;49.482;7.716;2022-11-21T03:36:53;97834.94;;;7.62;100.00
11542;BME280;5827;49.482;7.716;2022-11-21T03:38:55;97834.94;;;7.62;100.00
11542;BME280;5827;49.482;7.716;2022-11-21T03:41:02;97843.50;;;7.64;100.00
11542;BME280;5827;49.482;7.716;2022-11-21T03:43:04;97842.16;;;7.61;100.00
11542;BME280;5827;49.482;7.716;2022-11-21T03:45:07;97840.03;;;7.63;100.00
11542;BME280;5827;49.482;7.716;2022-11-21T03:47:11;97847.16;;;7.58;100.00
11542;BME280;5827;49.482;7.716;2022-11-21T03:49:13;97841.44;;;7.49;100.00
11542;BME280;5827;49.482;7.716;2022-11-21T03:51:15;97841.50;;;7.54;100.00
11542;BME280;5827;49.482;7.716;2022-11-21T03:53:17;97838.84;;;7.54;100.00
11542;BME280;5827;49.482;7.716;2022-11-21T03:55:20;97835.13;;;7.55;100.00
11542;BME280;5827;49.482;7.716;2022-11-21T03:57:22;97835.19;;;7.60;100.00
11542;BME280;5827;49.482;7.716;2022-11-21T03:59:24;97840.28;;;7.62;100.00
11542;BME280;5827;49.482;7.716;2022-11-21T04:01:26;97833.13;;;7.46;100.00
11542;BME280;5827;49.482;7.716;2022-11-21T04:03:29;97827.38;;;7.54;100.00
11542;BME280;5827;49.482;7.716;2022-11-21T04:05:30;97835.19;;;7.60;100.00
11542;BME280;5827;49.482;7.716;2022-11-21T04:07:32;97828.44;;;7.53;100.00
11542;BME280;5827;49.482;7.716;2022-11-21T04:09:33;97830.78;;;7.49;100.00
11542;BME280;5827;49.482;7.716;2022-11-21T04:11:35;97832.28;;;7.62;100.00
11542;BME280;5827;49.482;7.716;2022-11-21T04:13:36;97829.84;;;7.60;100.00
11542;BME280;5827;49.482;7.716;2022-11-21T04:15:40;97830.75;;;7.66;100.00
11542;BME280;5827;49.482;7.716;2022-11-21T04:17:41;97821.38;;;7.63;100.00
11542;BME280;5827;49.482;7.716;2022-11-21T04:19:44;97833.94;;;7.68;100.00
11542;BME280;5827;49.482;7.716;2022-11-21T04:21:46;97829.75;;;7.72;100.00
11542;BME280;5827;49.482;7.716;2022-11-21T04:23:47;97834.06;;;7.78;100.00
11542;BME280;5827;49.482;7.716;2022-11-21T04:25:49;97833.69;;;7.70;100.00
11542;BME280;5827;49.482;7.716;2022-11-21T04:27:50;97824.66;;;7.71;100.00
11542;BME280;5827;49.482;7.716;2022-11-21T04:29:52;97826.06;;;7.78;100.00
11542;BME280;5827;49.482;7.716;2022-11-21T04:31:53;97817.63;;;7.64;100.00
11542;BME280;5827;49.482;7.716;2022-11-21T04:33:55;97819.34;;;7.71;100.00
11542;BME280;5827;49.482;7.716;2022-11-21T04:35:58;97819.03;;;7.67;100.00
11542;BME280;5827;49.482;7.716;2022-11-21T04:37:59;97819.19;;;7.60;100.00
11542;BME280;5827;49.482;7.716;2022-11-21T04:40:01;97818.38;;;7.60;100.00
11542;BME280;5827;49.482;7.716;2022-11-21T04:42:03;97824.59;;;7.66;100.00
11542;BME280;5827;49.482;7.716;2022-11-21T04:44:04;97824.09;;;7.69;100.00
11542;BME280;5827;49.482;7.716;2022-11-21T04:46:06;97823.28;;;7.68;100.00
11542;BME280;5827;49.482;7.716;2022-11-21T04:48:08;97825.50;;;7.54;100.00
11542;BME280;5827;49.482;7.716;2022-11-21T04:50:11;97824.28;;;7.62;100.00
11542;BME280;5827;49.482;7.716;2022-11-21T04:52:16;97820.38;;;7.48;100.00
11542;BME280;5827;49.482;7.716;2022-11-21T04:54:17;97825.56;;;7.59;100.00
11542;BME280;5827;49.482;7.716;2022-11-21T04:56:19;97820.13;;;7.49;100.00
11542;BME280;5827;49.482;7.716;2022-11-21T04:58:20;97820.75;;;7.56;100.00
11542;BME280;5827;49.482;7.716;2022-11-21T05:00:22;97817.56;;;7.59;100.00
11542;BME280;5827;49.482;7.716;2022-11-21T05:02:24;97801.88;;;7.41;100.00
11542;BME280;5827;49.482;7.716;2022-11-21T05:04:25;97813.78;;;7.33;100.00
11542;BME280;5827;49.482;7.716;2022-11-21T05:06:27;97814.09;;;7.37;100.00
11542;BME280;5827;49.482;7.716;2022-11-21T05:08:30;97831.59;;;7.33;100.00
11542;BME280;5827;49.482;7.716;2022-11-21T05:10:31;97813.22;;;7.31;100.00
11542;BME280;5827;49.482;7.716;2022-11-21T05:12:56;97822.66;;;7.39;100.00
11542;BME280;5827;49.482;7.716;2022-11-21T05:15:16;97820.72;;;7.34;100.00
11542;BME280;5827;49.482;7.716;2022-11-21T05:17:17;97827.28;;;7.27;100.00
11542;BME280;5827;49.482;7.716;2022-11-21T05:19:19;97812.28;;;7.21;100.00
11542;BME280;5827;49.482;7.716;2022-11-21T05:21:20;97818.41;;;7.21;100.00
11542;BME280;5827;49.482;7.716;2022-11-21T05:23:22;97816.47;;;7.17;100.00
11542;BME280;5827;49.482;7.716;2022-11-21T05:25:25;97814.22;;;7.25;100.00
11542;BME280;5827;49.482;7.716;2022-11-21T05:27:26;97814.22;;;7.25;100.00
11542;BME280;5827;49.482;7.716;2022-11-21T05:29:29;97817.19;;;7.29;100.00
11542;BME280;5827;49.482;7.716;2022-11-21T05:31:30;97823.25;;;7.24;100.00
11542;BME280;5827;49.482;7.716;2022-11-21T05:33:32;97821.31;;;7.20;100.00
11542;BME280;5827;49.482;7.716;2022-11-21T05:35:33;97824.47;;;7.17;100.00
11542;BME280;5827;49.482;7.716;2022-11-21T05:37:37;97824.47;;;7.17;100.00
11542;BME280;5827;49.482;7.716;2022-11-21T05:39:39;97827.19;;;7.22;100.00
11542;BME280;5827;49.482;7.716;2022-11-21T05:41:42;97829.22;;;7.14;100.00
11542;BME280;5827;49.482;7.716;2022-11-21T05:43:43;97828.19;;;7.16;100.00
11542;BME280;5827;49.482;7.716;2022-11-21T05:45:47;97833.09;;;7.24;100.00
11542;BME280;5827;49.482;7.716;2022-11-21T05:47:49;97831.97;;;7.20;100.00
11542;BME280;5827;49.482;7.716;2022-11-21T05:49:51;97830.59;;;7.17;100.00
11542;BME280;5827;49.482;7.716;2022-11-21T05:51:52;97827.75;;;7.24;100.00
11542;BME280;5827;49.482;7.716;2022-11-21T05:53:54;97811.75;;;7.24;100.00
11542;BME280;5827;49.482;7.716;2022-11-21T05:55:55;97820.09;;;7.27;100.00
11542;BME280;5827;49.482;7.716;2022-11-21T05:57:59;97818.53;;;7.31;100.00
11542;BME280;5827;49.482;7.716;2022-11-21T06:00:01;97819.84;;;7.29;100.00
11542;BME280;5827;49.482;7.716;2022-11-21T06:02:02;97828.88;;;7.28;100.00
11542;BME280;5827;49.482;7.716;2022-11-21T06:04:21;97817.28;;;7.17;100.00
11542;BME280;5827;49.482;7.716;2022-11-21T06:06:23;97820.00;;;7.22;100.00
11542;BME280;5827;49.482;7.716;2022-11-21T06:08:24;97819.22;;;7.22;100.00
11542;BME280;5827;49.482;7.716;2022-11-21T06:10:26;97831.97;;;7.20;100.00
11542;BME280;5827;49.482;7.716;2022-11-21T06:12:27;97835.34;;;7.32;100.00
11542;BME280;5827;49.482;7.716;2022-11-21T06:14:30;97836.38;;;7.31;100.00
11542;BME280;5827;49.482;7.716;2022-11-21T06:16:32;97827.28;;;7.27;100.00
11542;BME280;5827;49.482;7.716;2022-11-21T06:18:35;97823.88;;;7.31;100.00
11542;BME280;5827;49.482;7.716;2022-11-21T06:20:37;97815.16;;;7.36;100.00
11542;BME280;5827;49.482;7.716;2022-11-21T06:22:38;97829.19;;;7.31;100.00
11542;BME280;5827;49.482;7.716;2022-11-21T06:24:40;97819.94;;;7.17;100.00
11542;BME280;5827;49.482;7.716;2022-11-21T06:26:41;97831.25;;;7.24;100.00
11542;BME280;5827;49.482;7.716;2022-11-21T06:28:44;97827.19;;;7.22;100.00
11542;BME280;5827;49.482;7.716;2022-11-21T06:30:47;97821.47;;;7.13;100.00
11542;BME280;5827;49.482;7.716;2022-11-21T06:32:51;97830.19;;;7.08;100.00
11542;BME280;5827;49.482;7.716;2022-11-21T06:34:52;97822.69;;;7.05;100.00
11542;BME280;5827;49.482;7.716;2022-11-21T06:36:53;97826.00;;;6.96;100.00
11542;BME280;5827;49.482;7.716;2022-11-21T06:38:55;97823.06;;;6.92;100.00
11542;BME280;5827;49.482;7.716;2022-11-21T06:40:57;97825.13;;;6.90;100.00
11542;BME280;5827;49.482;7.716;2022-11-21T06:42:58;97829.72;;;6.78;100.00
11542;BME280;5827;49.482;7.716;2022-11-21T06:45:00;97826.09;;;6.84;100.00
11542;BME280;5827;49.482;7.716;2022-11-21T06:47:03;97831.34;;;6.79;100.00
11542;BME280;5827;49.482;7.716;2022-11-21T06:49:05;97830.44;;;6.73;100.00
11542;BME280;5827;49.482;7.716;2022-11-21T06:51:10;97830.44;;;6.73;100.00
11542;BME280;5827;49.482;7.716;2022-11-21T06:53:12;97836.56;;;6.57;100.00
11542;BME280;5827;49.482;7.716;2022-11-21T06:55:14;97835.91;;;6.50;100.00
11542;BME280;5827;49.482;7.716;2022-11-21T06:57:15;97838.34;;;6.51;100.00
11542;BME280;5827;49.482;7.716;2022-11-21T06:59:17;97843.75;;;6.56;100.00
11542;BME280;5827;49.482;7.716;2022-11-21T07:01:18;97845.38;;;6.57;100.00
11542;BME280;5827;49.482;7.716;2022-11-21T07:03:21;97836.00;;;6.55;100.00
11542;BME280;5827;49.482;7.716;2022-11-21T07:05:23;97834.06;;;6.50;100.00
11542;BME280;5827;49.482;7.716;2022-11-21T07:07:25;97837.38;;;6.57;100.00
11542;BME280;5827;49.482;7.716;2022-11-21T07:09:26;97834.16;;;6.55;100.00
11542;BME280;5827;49.482;7.716;2022-11-21T07:11:28;97834.63;;;6.52;100.00
11542;BME280;5827;49.482;7.716;2022-11-21T07:13:30;97840.38;;;6.61;100.00
11542;BME280;5827;49.482;7.716;2022-11-21T07:15:31;97847.56;;;6.60;100.00
11542;BME280;5827;49.482;7.716;2022-11-21T07:17:33;97850.06;;;6.67;100.00
11542;BME280;5827;49.482;7.716;2022-11-21T07:19:36;97847.13;;;6.69;100.00
11542;BME280;5827;49.482;7.716;2022-11-21T07:21:37;97856.84;;;6.75;100.00
11542;BME280;5827;49.482;7.716;2022-11-21T07:23:39;97860.56;;;6.74;100.00
11542;BME280;5827;49.482;7.716;2022-11-21T07:25:41;97863.59;;;6.82;100.00
11542;BME280;5827;49.482;7.716;2022-11-21T07:27:43;97867.31;;;6.81;100.00
11542;BME280;5827;49.482;7.716;2022-11-21T07:29:44;97865.72;;;6.80;100.00
11542;BME280;5827;49.482;7.716;2022-11-21T07:31:46;97866.28;;;6.66;100.00
11542;BME280;5827;49.482;7.716;2022-11-21T07:33:48;97853.84;;;6.71;100.00
11542;BME280;5827;49.482;7.716;2022-11-21T07:35:50;97851.19;;;6.71;100.00
11542;BME280;5827;49.482;7.716;2022-11-21T07:37:52;97856.91;;;6.63;100.00
11542;BME280;5827;49.482;7.716;2022-11-21T07:39:54;97868.34;;;6.63;100.00
11542;BME280;5827;49.482;7.716;2022-11-21T07:41:56;97857.78;;;6.69;100.00
11542;BME280;5827;49.482;7.716;2022-11-21T07:43:57;97866.34;;;6.71;100.00
11542;BME280;5827;49.482;7.716;2022-11-21T07:45:59;97866.66;;;6.57;100.00
11542;BME280;5827;49.482;7.716;2022-11-21T07:48:02;97854.97;;;6.58;100.00
11542;BME280;5827;49.482;7.716;2022-11-21T07:50:05;97860.78;;;6.55;100.00
11542;BME280;5827;49.482;7.716;2022-11-21T07:52:08;97857.63;;;6.58;100.00
11542;BME280;5827;49.482;7.716;2022-11-21T07:54:09;97855.13;;;6.52;100.00
11542;BME280;5827;49.482;7.716;2022-11-21T07:56:11;97856.31;;;6.44;100.00
11542;BME280;5827;49.482;7.716;2022-11-21T07:58:14;97854.53;;;6.50;100.00
11542;BME280;5827;49.482;7.716;2022-11-21T08:00:17;97852.22;;;6.53;100.00
11542;BME280;5827;49.482;7.716;2022-11-21T08:02:19;97852.28;;;6.58;100.00
11542;BME280;5827;49.482;7.716;2022-11-21T08:04:21;97854.72;;;6.60;100.00
11542;BME280;5827;49.482;7.716;2022-11-21T08:06:23;97854.53;;;6.50;100.00
11542;BME280;5827;49.482;7.716;2022-11-21T08:08:25;97855.22;;;6.57;100.00
11542;BME280;5827;49.482;7.716;2022-11-21T08:10:27;97846.16;;;6.58;100.00
11542;BME280;5827;49.482;7.716;2022-11-21T08:12:30;97843.75;;;6.56;100.00
11542;BME280;5827;49.482;7.716;2022-11-21T08:14:32;97841.97;;;6.62;100.00
11542;BME280;5827;49.482;7.716;2022-11-21T08:16:34;97836.91;;;6.60;100.00
11542;BME280;5827;49.482;7.716;2022-11-21T08:18:35;97844.41;;;6.63;100.00
11542;BME280;5827;49.482;7.716;2022-11-21T08:20:37;97849.97;;;6.62;100.00
11542;BME280;5827;49.482;7.716;2022-11-21T08:22:38;97843.44;;;6.70;100.00
11542;BME280;5827;49.482;7.716;2022-11-21T08:24:42;97836.34;;;6.75;100.00
11542;BME280;5827;49.482;7.716;2022-11-21T08:26:44;97833.09;;;6.73;100.00
11542;BME280;5827;49.482;7.716;2022-11-21T08:28:46;97827.78;;;6.73;100.00
11542;BME280;5827;49.482;7.716;2022-11-21T08:30:47;97833.22;;;6.78;100.00
11542;BME280;5827;49.482;7.716;2022-11-21T08:32:50;97825.59;;;6.87;100.00
11542;BME280;5827;49.482;7.716;2022-11-21T08:34:51;97821.34;;;6.86;100.00
11542;BME280;5827;49.482;7.716;2022-11-21T08:36:53;97812.22;;;6.82;100.00
11542;BME280;5827;49.482;7.716;2022-11-21T08:38:54;97815.22;;;6.85;100.00
11542;BME280;5827;49.482;7.716;2022-11-21T08:40:57;97818.75;;;6.91;100.00
11542;BME280;5827;49.482;7.716;2022-11-21T08:43:12;97821.50;;;6.96;100.00
11542;BME280;5827;49.482;7.716;2022-11-21T08:45:14;97829.66;;;7.06;100.00
11542;BME280;5827;49.482;7.716;2022-11-21T08:47:16;97823.66;;;7.16;100.00
11542;BME280;5827;49.482;7.716;2022-11-21T08:49:17;97819.22;;;7.22;100.00
11542;BME280;5827;49.482;7.716;2022-11-21T08:51:19;97828.81;;;7.23;100.00
11542;BME280;5827;49.482;7.716;2022-11-21T08:53:20;97827.84;;;7.29;100.00
11542;BME280;5827;49.482;7.716;2022-11-21T08:55:22;97821.84;;;7.38;100.00
11542;BME280;5827;49.482;7.716;2022-11-21T08:57:25;97815.78;;;7.43;100.00
11542;BME280;5827;49.482;7.716;2022-11-21T08:59:26;97812.50;;;7.58;100.00
11542;BME280;5827;49.482;7.716;2022-11-21T09:01:28;97804.63;;;7.68;100.00
11542;BME280;5827;49.482;7.716;2022-11-21T09:03:29;97810.34;;;7.77;100.00
11542;BME280;5827;49.482;7.716;2022-11-21T09:05:31;97802.81;;;7.74;100.00
11542;BME280;5827;49.482;7.716;2022-11-21T09:07:33;97807.59;;;7.72;100.00
11542;BME280;5827;49.482;7.716;2022-11-21T09:09:35;97808.09;;;7.69;100.00
11542;BME280;5827;49.482;7.716;2022-11-21T09:11:36;97798.00;;;7.71;100.00
11542;BME280;5827;49.482;7.716;2022-11-21T09:13:39;97796.81;;;7.61;100.00
11542;BME280;5827;49.482;7.716;2022-11-21T09:15:41;97797.13;;;7.65;100.00
11542;BME280;5827;49.482;7.716;2022-11-21T09:18:00;97785.78;;;7.75;100.00
11542;BME280;5827;49.482;7.716;2022-11-21T09:20:05;97783.78;;;7.65;100.00
11542;BME280;5827;49.482;7.716;2022-11-21T09:22:06;97774.38;;;7.79;100.00
11542;BME280;5827;49.482;7.716;2022-11-21T09:24:08;97774.94;;;7.81;100.00
11542;BME280;5827;49.482;7.716;2022-11-21T09:26:10;97780.56;;;7.85;100.00
11542;BME280;5827;49.482;7.716;2022-11-21T09:28:12;97782.66;;;7.83;100.00
11542;BME280;5827;49.482;7.716;2022-11-21T09:30:15;97781.13;;;7.87;100.00
11542;BME280;5827;49.482;7.716;2022-11-21T09:32:17;97781.38;;;7.85;100.00
11542;BME280;5827;49.482;7.716;2022-11-21T09:34:18;97786.50;;;7.92;100.00
11542;BME280;5827;49.482;7.716;2022-11-21T09:36:20;97787.16;;;8.04;100.00
11542;BME280;5827;49.482;7.716;2022-11-21T09:38:21;97778.72;;;8.12;100.00
11542;BME280;5827;49.482;7.716;2022-11-21T09:40:24;97783.09;;;8.24;100.00
11542;BME280;5827;49.482;7.716;2022-11-21T09:42:43;97771.44;;;8.30;100.00
11542;BME280;5827;49.482;7.716;2022-11-21T09:44:58;97762.84;;;8.28;100.00
11542;BME280;5827;49.482;7.716;2022-11-21T09:47:14;97762.91;;;8.33;100.00
11542;BME280;5827;49.482;7.716;2022-11-21T09:49:18;97761.00;;;8.28;100.00
11542;BME280;5827;49.482;7.716;2022-11-21T09:51:23;97760.22;;;8.33;100.00
11542;BME280;5827;49.482;7.716;2022-11-21T09:53:27;97758.53;;;8.49;100.00
11542;BME280;5827;49.482;7.716;2022-11-21T09:55:38;97758.28;;;8.50;100.00
11542;BME280;5827;49.482;7.716;2022-11-21T09:57:45;97764.75;;;8.59;100.00
11542;BME280;5827;49.482;7.716;2022-11-21T09:59:48;97763.69;;;8.60;100.00
11542;BME280;5827;49.482;7.716;2022-11-21T10:01:51;97770.16;;;8.70;100.00
11542;BME280;5827;49.482;7.716;2022-11-21T10:03:54;97762.81;;;8.87;100.00
11542;BME280;5827;49.482;7.716;2022-11-21T10:05:59;97754.13;;;9.07;100.00
11542;BME280;5827;49.482;7.716;2022-11-21T10:08:06;97750.31;;;8.98;100.00
11542;BME280;5827;49.482;7.716;2022-11-21T10:10:31;97750.50;;;9.28;100.00
11542;BME280;5827;49.482;7.716;2022-11-21T10:12:45;97759.44;;;9.44;100.00
11542;BME280;5827;49.482;7.716;2022-11-21T10:14:58;97752.72;;;9.41;100.00
11542;BME280;5827;49.482;7.716;2022-11-21T10:17:12;97737.50;;;9.52;100.00
11542;BME280;5827;49.482;7.716;2022-11-21T10:19:33;97739.69;;;9.65;100.00
11542;BME280;5827;49.482;7.716;2022-11-21T10:22:00;97732.44;;;9.56;100.00
11542;BME280;5827;49.482;7.716;2022-11-21T10:24:22;97728.78;;;9.72;100.00
11542;BME280;5827;49.482;7.716;2022-11-21T10:26:34;97733.25;;;9.61;100.00
11542;BME280;5827;49.482;7.716;2022-11-21T10:28:45;97727.91;;;9.56;99.52
11542;BME280;5827;49.482;7.716;2022-11-21T10:30:50;97726.81;;;9.52;98.78
11542;BME280;5827;49.482;7.716;2022-11-21T10:32:55;97717.50;;;9.65;99.39
11542;BME280;5827;49.482;7.716;2022-11-21T10:35:06;97716.91;;;9.53;98.22
11542;BME280;5827;49.482;7.716;2022-11-21T10:37:22;97720.63;;;9.36;98.22
11542;BME280;5827;49.482;7.716;2022-11-21T10:39:33;97713.38;;;9.27;98.92
11542;BME280;5827;49.482;7.716;2022-11-21T10:41:39;97700.03;;;9.37;99.31
11542;BME280;5827;49.482;7.716;2022-11-21T10:43:50;97691.41;;;9.25;98.43
11542;BME280;5827;49.482;7.716;2022-11-21T10:46:13;97693.56;;;9.28;100.00
11542;BME280;5827;49.482;7.716;2022-11-21T10:48:15;97685.53;;;9.23;100.00
11542;BME280;5827;49.482;7.716;2022-11-21T10:50:32;97682.31;;;9.21;99.99
11542;BME280;5827;49.482;7.716;2022-11-21T10:52:43;97672.72;;;9.30;100.00
11542;BME280;5827;49.482;7.716;2022-11-21T10:55:03;97675.97;;;9.32;99.61
11542;BME280;5827;49.482;7.716;2022-11-21T10:57:06;97667.13;;;9.31;100.00
11542;BME280;5827;49.482;7.716;2022-11-21T10:59:21;97662.31;;;9.28;99.27
11542;BME280;5827;49.482;7.716;2022-11-21T11:01:25;97658.22;;;9.10;99.95
11542;BME280;5827;49.482;7.716;2022-11-21T11:03:29;97643.06;;;9.26;100.00